Time;durP1;ratioP1;P1;durP2;ratioP2;P2;SDS_P1;SDS_P2;PMS_P1;PMS_P2;Temp;Humidity;BMP_temperature;BMP_pressure;BME280_temperature;BME280_humidity;BME280_pressure;Samples;Min_cycle;Max_cycle;Signal;HPM_P1;HPM_P2
2021/11/11 00:01:36;;;;;;;25.38;16.13;;;;;;;;;;4995069;28;20042;-58
2021/11/11 00:04:21;;;;;;;24.63;14.73;;;;;;;;;;4980234;28;20050;-58
2021/11/11 00:07:07;;;;;;;27.40;12.85;;;;;;;;;;4983368;28;20038;-60
2021/11/11 00:09:52;;;;;;;22.08;12.85;;;;;;;;;;4986478;28;20482;-61
2021/11/11 00:12:38;;;;;;;22.80;14.98;;;;;;;;;;4986860;28;20030;-60
2021/11/11 00:15:23;;;;;;;28.85;16.42;;;;;;;;;;4985906;28;20473;-60
2021/11/11 00:18:09;;;;;;;26.40;16.45;;;;;;;;;;4989559;28;20113;-61
2021/11/11 00:20:54;;;;;;;23.27;13.32;;;;;;;;;;4991425;28;20552;-60
2021/11/11 00:23:39;;;;;;;25.40;14.65;;;;;;;;;;4991221;28;20069;-57
2021/11/11 00:26:24;;;;;;;24.90;14.13;;;;;;;;;;4985760;28;20038;-60
2021/11/11 00:29:10;;;;;;;21.63;13.95;;;;;;;;;;4990625;28;20490;-64
2021/11/11 00:31:55;;;;;;;29.08;15.75;;;;;;;;;;4987144;28;20065;-59
2021/11/11 00:34:41;;;;;;;24.50;15.07;;;;;;;;;;5004513;28;20510;-62
2021/11/11 00:37:26;;;;;;;25.23;14.90;;;;;;;;;;4987427;28;20422;-62
2021/11/11 00:40:12;;;;;;;25.67;15.75;;;;;;;;;;4977809;28;20107;-62
2021/11/11 00:42:58;;;;;;;24.33;15.00;;;;;;;;;;4987403;28;20026;-60
2021/11/11 00:45:43;;;;;;;27.10;14.10;;;;;;;;;;4998230;28;20053;-61
2021/11/11 00:48:28;;;;;;;28.40;15.05;;;;;;;;;;4989459;28;20113;-61
2021/11/11 00:51:14;;;;;;;20.50;13.60;;;;;;;;;;4990451;28;20134;-60
2021/11/11 00:53:59;;;;;;;22.20;14.10;;;;;;;;;;4990222;28;20547;-62
2021/11/11 00:56:44;;;;;;;24.70;15.32;;;;;;;;;;5000786;28;20046;-61
2021/11/11 00:59:30;;;;;;;20.17;12.82;;;;;;;;;;4976743;28;20065;-66
2021/11/11 01:02:15;;;;;;;23.40;14.85;;;;;;;;;;4989005;28;20061;-65
2021/11/11 01:05:00;;;;;;;22.98;14.10;;;;;;;;;;4990706;28;20112;-62
2021/11/11 01:07:46;;;;;;;31.42;15.60;;;;;;;;;;5004096;28;20030;-63
2021/11/11 01:10:31;;;;;;;21.83;14.48;;;;;;;;;;4986650;28;20084;-62
2021/11/11 01:13:17;;;;;;;24.00;15.50;;;;;;;;;;5002401;28;20177;-62
2021/11/11 01:16:03;;;;;;;22.80;15.30;;;;;;;;;;4990970;28;20030;-62
2021/11/11 01:18:48;;;;;;;22.08;14.05;;;;;;;;;;4984402;28;20034;-58
2021/11/11 01:21:34;;;;;;;21.75;13.32;;;;;;;;;;4989117;28;20033;-61
2021/11/11 01:24:19;;;;;;;22.25;13.68;;;;;;;;;;4989769;28;20042;-61
2021/11/11 01:27:04;;;;;;;24.75;15.10;;;;;;;;;;4986350;28;20092;-62
2021/11/11 01:29:50;;;;;;;25.20;16.00;;;;;;;;;;5000339;28;20030;-63
2021/11/11 01:32:35;;;;;;;22.10;14.43;;;;;;;;;;4990441;28;20041;-59
2021/11/11 01:35:20;;;;;;;24.23;15.52;;;;;;;;;;4984187;28;20041;-60
2021/11/11 01:38:05;;;;;;;23.67;15.93;;;;;;;;;;4997672;28;20585;-64
2021/11/11 01:40:51;;;;;;;21.65;14.60;;;;;;;;;;4989778;28;20335;-64
2021/11/11 01:43:36;;;;;;;21.00;13.38;;;;;;;;;;4989950;28;20549;-64
2021/11/11 01:46:21;;;;;;;21.77;14.45;;;;;;;;;;4987869;28;20371;-63
2021/11/11 01:49:07;;;;;;;24.20;15.60;;;;;;;;;;4998059;28;20374;-63
2021/11/11 01:51:53;;;;;;;21.77;14.10;;;;;;;;;;4989090;28;20058;-62
2021/11/11 01:54:40;;;;;;;25.65;15.75;;;;;;;;;;4990065;28;20038;-63
2021/11/11 01:57:27;;;;;;;23.15;14.48;;;;;;;;;;4985540;28;20058;-58
2021/11/11 02:00:15;;;;;;;27.45;15.77;;;;;;;;;;4983435;28;21052;-56
2021/11/11 02:03:02;;;;;;;25.92;16.55;;;;;;;;;;4989810;28;20033;-57
2021/11/11 02:05:48;;;;;;;22.30;14.23;;;;;;;;;;4988089;28;20042;-59
2021/11/11 02:08:33;;;;;;;28.67;14.68;;;;;;;;;;4984058;28;20113;-58
2021/11/11 02:11:20;;;;;;;30.17;16.58;;;;;;;;;;4988423;28;20030;-59
2021/11/11 02:14:05;;;;;;;25.95;16.58;;;;;;;;;;4998738;28;20073;-61
2021/11/11 02:16:51;;;;;;;26.10;16.15;;;;;;;;;;4982720;28;20469;-57
2021/11/11 02:19:37;;;;;;;24.75;16.17;;;;;;;;;;4989330;28;20034;-55
2021/11/11 02:22:22;;;;;;;25.00;16.17;;;;;;;;;;4988669;28;20100;-58
2021/11/11 02:25:08;;;;;;;30.55;17.48;;;;;;;;;;4984499;28;20026;-58
2021/11/11 02:28:02;;;;;;;22.30;14.75;;;;;;;;;;4995426;28;20512;-55
2021/11/11 02:30:48;;;;;;;25.77;16.60;;;;;;;;;;4994034;28;20076;-58
2021/11/11 02:33:34;;;;;;;26.17;14.15;;;;;;;;;;4988423;28;20026;-60
2021/11/11 02:36:19;;;;;;;23.60;15.68;;;;;;;;;;4970853;28;20022;-65
2021/11/11 02:39:04;;;;;;;23.33;14.02;;;;;;;;;;4999004;28;20707;-65
2021/11/11 02:41:49;;;;;;;23.08;14.13;;;;;;;;;;4987546;28;20058;-65
2021/11/11 02:44:39;;;;;;;24.92;15.20;;;;;;;;;;5002267;28;20108;-67
2021/11/11 02:47:24;;;;;;;23.50;14.52;;;;;;;;;;4987873;28;20049;-66
2021/11/11 02:50:10;;;;;;;23.60;14.32;;;;;;;;;;4985369;28;20058;-65
2021/11/11 02:52:57;;;;;;;24.70;14.80;;;;;;;;;;4988072;28;20045;-59
2021/11/11 02:55:42;;;;;;;27.75;14.48;;;;;;;;;;4986725;28;20054;-66
2021/11/11 02:58:27;;;;;;;23.75;14.07;;;;;;;;;;4987918;28;20031;-65
2021/11/11 03:01:13;;;;;;;20.25;13.38;;;;;;;;;;4987639;28;20042;-66
2021/11/11 03:03:58;;;;;;;28.60;16.85;;;;;;;;;;4988065;28;20367;-69
2021/11/11 03:06:44;;;;;;;24.98;14.13;;;;;;;;;;4984985;28;20073;-65
2021/11/11 03:09:29;;;;;;;21.58;14.38;;;;;;;;;;4987079;28;20030;-65
2021/11/11 03:12:15;;;;;;;22.50;14.90;;;;;;;;;;5001803;28;20046;-60
2021/11/11 03:15:00;;;;;;;23.83;16.42;;;;;;;;;;4988389;28;20045;-64
2021/11/11 03:17:46;;;;;;;25.88;15.45;;;;;;;;;;4985688;28;20466;-64
2021/11/11 03:20:32;;;;;;;28.60;18.17;;;;;;;;;;4995599;28;20030;-63
2021/11/11 03:23:17;;;;;;;24.33;16.05;;;;;;;;;;4985016;28;20031;-61
2021/11/11 03:26:02;;;;;;;25.58;14.80;;;;;;;;;;4986896;28;20134;-63
2021/11/11 03:28:48;;;;;;;25.63;15.73;;;;;;;;;;4980189;28;20474;-59
2021/11/11 03:31:33;;;;;;;21.02;12.77;;;;;;;;;;4987420;28;20397;-63
2021/11/11 03:34:19;;;;;;;24.52;16.13;;;;;;;;;;4987910;28;20088;-62
2021/11/11 03:37:05;;;;;;;26.55;16.67;;;;;;;;;;4988164;28;20045;-62
2021/11/11 03:39:50;;;;;;;26.30;14.75;;;;;;;;;;4985428;28;20096;-61
2021/11/11 03:42:36;;;;;;;24.63;15.43;;;;;;;;;;4997246;28;20437;-63
2021/11/11 03:45:22;;;;;;;23.95;14.20;;;;;;;;;;4994099;28;20026;-61
2021/11/11 03:48:07;;;;;;;22.98;13.60;;;;;;;;;;4983974;28;20065;-63
2021/11/11 03:50:52;;;;;;;22.50;13.60;;;;;;;;;;4987511;28;20370;-60
2021/11/11 03:53:38;;;;;;;25.15;14.20;;;;;;;;;;4992081;28;20046;-60
2021/11/11 03:56:23;;;;;;;22.13;13.55;;;;;;;;;;4989430;28;20485;-62
2021/11/11 03:59:10;;;;;;;26.10;15.32;;;;;;;;;;4991427;28;20034;-59
2021/11/11 04:01:55;;;;;;;26.40;14.80;;;;;;;;;;4992325;28;20539;-59
2021/11/11 04:04:41;;;;;;;23.85;15.02;;;;;;;;;;4986754;28;20115;-65
2021/11/11 04:07:26;;;;;;;20.45;13.63;;;;;;;;;;5000773;28;20041;-66
2021/11/11 04:10:12;;;;;;;22.00;14.18;;;;;;;;;;4989584;28;20107;-70
2021/11/11 04:13:01;;;;;;;25.52;15.50;;;;;;;;;;4988677;28;20485;-67
2021/11/11 04:15:46;;;;;;;22.15;15.07;;;;;;;;;;4991437;28;20022;-65
2021/11/11 04:18:31;;;;;;;21.40;14.23;;;;;;;;;;4985118;28;20040;-66
2021/11/11 04:21:17;;;;;;;23.00;14.85;;;;;;;;;;5001709;28;20104;-66
2021/11/11 04:24:02;;;;;;;23.70;14.23;;;;;;;;;;5005504;28;20553;-62
2021/11/11 04:29:43;;;;;;;22.75;14.63;;;;;;;;;;4987549;28;20050;-61
2021/11/11 04:32:28;;;;;;;25.38;14.05;;;;;;;;;;5003930;28;20038;-61
2021/11/11 04:35:14;;;;;;;25.20;15.60;;;;;;;;;;4991873;28;20041;-63
2021/11/11 04:38:03;;;;;;;25.38;16.63;;;;;;;;;;4989500;28;20038;-64
2021/11/11 04:47:24;;;;;;;25.27;15.50;;;;;;;;;;4987478;28;20113;-59
2021/11/11 05:05:21;;;;;;;26.05;17.38;;;;;;;;;;4991006;28;20184;-63
2021/11/11 05:08:06;;;;;;;27.75;17.13;;;;;;;;;;4989073;28;20034;-60
2021/11/11 05:10:52;;;;;;;26.73;16.58;;;;;;;;;;4990149;28;20080;-61
2021/11/11 05:13:38;;;;;;;57.50;36.63;;;;;;;;;;4982763;28;20038;-63
2021/11/11 05:16:23;;;;;;;26.60;17.15;;;;;;;;;;4990816;28;20035;-62
2021/11/11 05:19:08;;;;;;;26.35;17.13;;;;;;;;;;4990226;28;20042;-59
2021/11/11 05:21:53;;;;;;;31.52;19.40;;;;;;;;;;4990662;28;20382;-62
2021/11/11 05:24:39;;;;;;;27.20;17.27;;;;;;;;;;4988466;28;20385;-61
2021/11/11 05:27:26;;;;;;;27.38;17.48;;;;;;;;;;4990585;28;20398;-62
2021/11/11 05:30:12;;;;;;;34.67;18.48;;;;;;;;;;4988499;28;20041;-60
2021/11/11 05:32:58;;;;;;;29.02;18.40;;;;;;;;;;4985667;28;20046;-60
2021/11/11 05:35:43;;;;;;;23.65;15.63;;;;;;;;;;4990415;28;20019;-60
2021/11/11 05:38:28;;;;;;;23.77;14.95;;;;;;;;;;4988632;28;20182;-58
2021/11/11 05:41:14;;;;;;;24.27;16.02;;;;;;;;;;4990293;28;20042;-60
2021/11/11 05:43:59;;;;;;;27.98;17.88;;;;;;;;;;5000404;28;20030;-60
2021/11/11 05:46:45;;;;;;;28.35;15.57;;;;;;;;;;4989683;28;20070;-60
2021/11/11 05:49:30;;;;;;;24.38;15.65;;;;;;;;;;4988974;28;20096;-60
2021/11/11 05:52:15;;;;;;;28.42;17.98;;;;;;;;;;4965088;28;20042;-60
2021/11/11 05:55:00;;;;;;;30.05;16.67;;;;;;;;;;4984618;28;20402;-57
2021/11/11 05:57:46;;;;;;;27.80;16.90;;;;;;;;;;4990478;28;20054;-59
2021/11/11 06:00:31;;;;;;;31.48;17.55;;;;;;;;;;4983643;28;20030;-61
2021/11/11 06:03:16;;;;;;;24.13;14.90;;;;;;;;;;4989326;28;20077;-64
2021/11/11 06:06:02;;;;;;;23.08;15.32;;;;;;;;;;4994857;28;20033;-63
2021/11/11 06:11:22;;;;;;;25.10;16.98;;;;;;;;;;5835565;22;21230;-69
2021/11/11 06:14:07;;;;;;;27.02;16.95;;;;;;;;;;5002219;23;20156;-63
2021/11/11 06:16:53;;;;;;;28.00;17.85;;;;;;;;;;5000312;28;20072;-66
2021/11/11 06:19:40;;;;;;;25.70;16.63;;;;;;;;;;5014771;28;20052;-65
2021/11/11 06:22:26;;;;;;;31.00;17.98;;;;;;;;;;5012775;28;20037;-65
2021/11/11 06:25:11;;;;;;;27.20;15.82;;;;;;;;;;5010093;28;20225;-64
2021/11/11 06:27:57;;;;;;;26.25;16.05;;;;;;;;;;5000718;28;20029;-70
2021/11/11 06:30:42;;;;;;;24.83;17.20;;;;;;;;;;5015434;28;20045;-64
2021/11/11 06:33:27;;;;;;;26.77;18.00;;;;;;;;;;5014584;28;20541;-66
2021/11/11 06:36:13;;;;;;;28.27;17.20;;;;;;;;;;5018457;28;20108;-67
2021/11/11 06:38:58;;;;;;;29.25;18.38;;;;;;;;;;5001301;28;20083;-65
2021/11/11 06:41:44;;;;;;;27.60;17.23;;;;;;;;;;5010499;28;20030;-64
2021/11/11 06:44:29;;;;;;;26.60;17.75;;;;;;;;;;5012129;28;20033;-65
2021/11/11 06:47:15;;;;;;;28.10;17.67;;;;;;;;;;5008665;28;20033;-62
2021/11/11 06:50:00;;;;;;;26.23;16.45;;;;;;;;;;5026998;28;20045;-69
2021/11/11 06:52:45;;;;;;;24.67;17.13;;;;;;;;;;5034685;28;20486;-68
2021/11/11 06:55:32;;;;;;;30.30;17.55;;;;;;;;;;5033910;28;20312;-69
2021/11/11 06:58:22;;;;;;;30.08;18.75;;;;;;;;;;5028688;28;20030;-70
2021/11/11 07:01:08;;;;;;;30.63;17.10;;;;;;;;;;5039769;28;20037;-67
2021/11/11 07:03:53;;;;;;;28.15;17.80;;;;;;;;;;5016682;28;20025;-67
2021/11/11 07:06:38;;;;;;;26.50;17.23;;;;;;;;;;5047722;28;20028;-71
2021/11/11 07:09:24;;;;;;;26.95;17.48;;;;;;;;;;5033233;28;20029;-69
2021/11/11 07:12:09;;;;;;;25.23;17.33;;;;;;;;;;5030443;28;20494;-70
2021/11/11 07:14:55;;;;;;;28.52;18.67;;;;;;;;;;5029450;28;20036;-69
2021/11/11 07:17:40;;;;;;;33.47;20.75;;;;;;;;;;5025758;28;20114;-68
2021/11/11 07:20:26;;;;;;;26.65;17.90;;;;;;;;;;5038646;28;20061;-68
2021/11/11 07:23:12;;;;;;;26.60;17.40;;;;;;;;;;5031132;28;20096;-64
2021/11/11 07:25:57;;;;;;;31.77;17.77;;;;;;;;;;5024376;28;20040;-65
2021/11/11 07:28:43;;;;;;;23.95;16.52;;;;;;;;;;5026781;28;20028;-64
2021/11/11 07:31:29;;;;;;;26.70;16.58;;;;;;;;;;5032305;28;20035;-68
2021/11/11 07:34:15;;;;;;;28.38;17.42;;;;;;;;;;5028711;28;20037;-64
2021/11/11 07:37:00;;;;;;;27.88;18.33;;;;;;;;;;5032464;28;20112;-65
2021/11/11 07:39:45;;;;;;;27.20;18.42;;;;;;;;;;5027496;28;20032;-64
2021/11/11 07:42:30;;;;;;;27.10;18.23;;;;;;;;;;5031619;28;20051;-62
2021/11/11 07:45:18;;;;;;;28.38;18.33;;;;;;;;;;5042267;28;20435;-62
2021/11/11 07:48:04;;;;;;;29.48;19.90;;;;;;;;;;5025943;28;20028;-62
2021/11/11 07:50:49;;;;;;;29.80;17.98;;;;;;;;;;5031309;28;20040;-62
2021/11/11 07:53:35;;;;;;;25.85;16.52;;;;;;;;;;5026110;28;20563;-61
2021/11/11 07:56:21;;;;;;;30.88;19.42;;;;;;;;;;5025817;28;20025;-61
2021/11/11 07:59:06;;;;;;;25.45;16.55;;;;;;;;;;5026327;28;20017;-64
2021/11/11 08:01:52;;;;;;;29.90;19.30;;;;;;;;;;5022560;28;20029;-64
2021/11/11 08:04:37;;;;;;;26.58;17.88;;;;;;;;;;5021698;28;20036;-67
2021/11/11 08:07:22;;;;;;;30.23;20.00;;;;;;;;;;5026980;28;20548;-66
2021/11/11 08:10:08;;;;;;;25.48;17.55;;;;;;;;;;5021635;28;20856;-64
2021/11/11 08:12:53;;;;;;;31.38;19.23;;;;;;;;;;5030286;28;20116;-64
2021/11/11 08:15:39;;;;;;;28.83;20.23;;;;;;;;;;5014996;28;20394;-64
2021/11/11 08:18:24;;;;;;;33.17;20.63;;;;;;;;;;5021828;28;20049;-64
2021/11/11 08:21:10;;;;;;;29.27;19.77;;;;;;;;;;5014700;28;20056;-69
2021/11/11 08:23:55;;;;;;;29.08;19.67;;;;;;;;;;5046428;28;21715;-67
2021/11/11 08:26:40;;;;;;;27.20;16.80;;;;;;;;;;5026674;28;20035;-66
2021/11/11 08:29:25;;;;;;;25.20;18.92;;;;;;;;;;5032563;28;20041;-65
2021/11/11 08:32:12;;;;;;;27.77;18.95;;;;;;;;;;5031079;28;20447;-65
2021/11/11 08:34:57;;;;;;;33.50;21.58;;;;;;;;;;5017945;28;20032;-66
2021/11/11 08:37:46;;;;;;;27.38;18.80;;;;;;;;;;5032338;28;20038;-72
2021/11/11 08:40:31;;;;;;;31.57;19.13;;;;;;;;;;5030589;28;20067;-64
2021/11/11 08:43:16;;;;;;;28.60;20.63;;;;;;;;;;5035698;28;20076;-66
2021/11/11 08:46:02;;;;;;;32.58;21.38;;;;;;;;;;5026193;28;20116;-67
2021/11/11 08:48:47;;;;;;;33.35;22.75;;;;;;;;;;5029311;28;20041;-65
2021/11/11 08:51:35;;;;;;;36.75;19.98;;;;;;;;;;5033632;28;20029;-65
2021/11/11 08:54:21;;;;;;;32.00;20.63;;;;;;;;;;5028155;28;20035;-65
2021/11/11 08:57:07;;;;;;;32.60;20.23;;;;;;;;;;5021767;28;20037;-62
2021/11/11 08:59:54;;;;;;;32.20;19.95;;;;;;;;;;5035610;28;20041;-64
2021/11/11 09:02:40;;;;;;;35.17;21.58;;;;;;;;;;5028994;28;20029;-65
2021/11/11 09:05:30;;;;;;;30.33;19.73;;;;;;;;;;5033676;28;20111;-61
2021/11/11 09:08:15;;;;;;;;;;;;;;;;;;5032298;28;20121;-63
2021/11/11 09:11:00;;;;;;;33.60;21.83;;;;;;;;;;5028880;28;20562;-60
2021/11/11 09:13:46;;;;;;;35.15;25.00;;;;;;;;;;5031839;28;20045;-64
2021/11/11 09:16:31;;;;;;;40.78;25.15;;;;;;;;;;5026906;28;20392;-63
2021/11/11 09:19:17;;;;;;;35.35;23.60;;;;;;;;;;5032859;28;20029;-63
2021/11/11 09:22:02;;;;;;;39.38;25.23;;;;;;;;;;5029021;28;20345;-65
2021/11/11 09:24:47;;;;;;;37.03;23.48;;;;;;;;;;5023374;28;20036;-66
2021/11/11 09:27:33;;;;;;;30.95;21.85;;;;;;;;;;5027952;28;20385;-64
2021/11/11 09:30:20;;;;;;;33.72;22.38;;;;;;;;;;5033381;28;20037;-62
2021/11/11 09:33:07;;;;;;;34.00;24.10;;;;;;;;;;5017715;28;20033;-63
2021/11/11 09:35:53;;;;;;;34.10;23.90;;;;;;;;;;5035335;28;20296;-68
2021/11/11 09:38:38;;;;;;;32.60;23.65;;;;;;;;;;5034347;28;20033;-69
2021/11/11 09:41:24;;;;;;;34.60;23.85;;;;;;;;;;5027133;28;20033;-68
2021/11/11 09:44:09;;;;;;;34.60;22.13;;;;;;;;;;5020547;28;20144;-67
2021/11/11 09:46:55;;;;;;;29.40;21.52;;;;;;;;;;5034632;28;20044;-67
2021/11/11 09:49:41;;;;;;;34.92;22.30;;;;;;;;;;5031518;28;20099;-63
2021/11/11 09:52:26;;;;;;;36.55;23.08;;;;;;;;;;5041654;28;20527;-65
2021/11/11 09:58:38;;;;;;;31.05;20.92;;;;;;;;;;5034276;28;20037;-61
2021/11/11 10:01:24;;;;;;;31.25;19.40;;;;;;;;;;5042532;28;20033;-63
2021/11/11 10:04:10;;;;;;;32.97;21.67;;;;;;;;;;5024587;28;20048;-64
2021/11/11 10:06:56;;;;;;;28.88;20.63;;;;;;;;;;5030782;28;20071;-63
2021/11/11 10:09:44;;;;;;;25.83;18.88;;;;;;;;;;5031983;28;20029;-64
2021/11/11 10:12:31;;;;;;;29.83;18.63;;;;;;;;;;5021113;28;20044;-71
2021/11/11 10:15:16;;;;;;;29.33;19.17;;;;;;;;;;5043453;28;20040;-69
2021/11/11 10:18:02;;;;;;;27.17;19.38;;;;;;;;;;5029585;28;20061;-68
2021/11/11 10:20:47;;;;;;;24.23;17.83;;;;;;;;;;5031410;28;20027;-68
2021/11/11 10:23:32;;;;;;;26.45;16.73;;;;;;;;;;5030238;28;20032;-69
2021/11/11 10:26:21;;;;;;;1999.90;999.90;;;;;;;;;;5019356;28;20123;-64
2021/11/11 10:29:18;;;;;;;1999.90;999.90;;;;;;;;;;5031270;28;20196;-65
2021/11/11 10:32:07;;;;;;;1999.90;999.90;;;;;;;;;;5033350;28;20687;-64
2021/11/11 10:34:54;;;;;;;1999.90;999.90;;;;;;;;;;5046293;28;20028;-65
2021/11/11 10:37:41;;;;;;;1999.90;999.90;;;;;;;;;;5044827;28;20467;-67
2021/11/11 10:40:34;;;;;;;1999.90;999.90;;;;;;;;;;5029212;28;20033;-65
2021/11/11 10:43:25;;;;;;;1999.90;999.90;;;;;;;;;;5022247;28;20065;-65
2021/11/11 10:46:10;;;;;;;26.20;18.17;;;;;;;;;;5032446;28;20037;-63
2021/11/11 10:49:15;;;;;;;32.22;16.95;;;;;;;;;;5033890;28;20029;-67
2021/11/11 10:52:19;;;;;;;46.60;42.78;;;;;;;;;;5019298;28;20021;-67
2021/11/11 10:55:20;;;;;;;1999.90;999.90;;;;;;;;;;5030228;28;20068;-67
2021/11/11 10:58:10;;;;;;;27.70;24.92;;;;;;;;;;5031701;28;20037;-67
2021/11/11 11:00:56;;;;;;;23.90;16.98;;;;;;;;;;5029543;28;20066;-67
2021/11/11 11:03:45;;;;;;;23.13;17.20;;;;;;;;;;5033469;28;20041;-64
2021/11/11 11:06:31;;;;;;;22.42;17.58;;;;;;;;;;5027445;28;20040;-67
2021/11/11 11:09:17;;;;;;;23.40;16.60;;;;;;;;;;5032628;28;20082;-67
2021/11/11 11:12:03;;;;;;;22.55;16.67;;;;;;;;;;5022901;28;20044;-66
2021/11/11 11:14:48;;;;;;;21.60;16.60;;;;;;;;;;5020464;28;20034;-64
2021/11/11 11:17:33;;;;;;;21.63;17.42;;;;;;;;;;5014031;28;20061;-65
2021/11/11 11:20:20;;;;;;;23.00;17.40;;;;;;;;;;5029281;28;20055;-64
2021/11/11 11:23:09;;;;;;;24.65;17.40;;;;;;;;;;5017779;28;20037;-64
2021/11/11 11:25:54;;;;;;;;;;;;;;;;;;5035395;28;20041;-65
2021/11/11 11:29:18;;;;;;;25.17;17.13;;;;;;;;;;5031694;28;19916;-67
2021/11/11 11:32:19;;;;;;;20.95;16.52;;;;;;;;;;5031969;28;20475;-68
2021/11/11 11:35:05;;;;;;;23.13;17.13;;;;;;;;;;5033920;28;20122;-64
2021/11/11 11:37:50;;;;;;;32.67;19.67;;;;;;;;;;5023648;28;20061;-66
2021/11/11 11:40:36;;;;;;;26.23;17.85;;;;;;;;;;5032118;28;20128;-63
2021/11/11 11:43:26;;;;;;;26.67;19.23;;;;;;;;;;5042494;28;20104;-65
2021/11/11 11:46:16;;;;;;;23.92;18.52;;;;;;;;;;5027917;28;20056;-65
2021/11/11 11:49:01;;;;;;;26.65;18.80;;;;;;;;;;5018255;28;20118;-64
2021/11/11 11:51:47;;;;;;;28.40;18.88;;;;;;;;;;5024987;28;20493;-65
2021/11/11 11:54:59;;;;;;;27.35;17.50;;;;;;;;;;5026219;28;20178;-65
2021/11/11 12:09:41;;;;;;;29.38;19.33;;;;;;;;;;5045381;28;20039;-65
2021/11/11 12:12:58;;;;;;;25.25;17.55;;;;;;;;;;5031176;28;20040;-65
2021/11/11 12:34:38;;;;;;;26.27;16.75;;;;;;;;;;5032670;28;20043;-62
2021/11/11 12:40:37;;;;;;;29.30;18.02;;;;;;;;;;5036095;28;20025;-68
2021/11/11 12:43:22;;;;;;;28.75;18.00;;;;;;;;;;5046610;28;20095;-69
2021/11/11 12:46:27;;;;;;;25.58;17.65;;;;;;;;;;5028517;28;20395;-68
2021/11/11 12:49:32;;;;;;;24.30;17.73;;;;;;;;;;5039898;28;20065;-71
2021/11/11 12:52:19;;;;;;;27.48;18.95;;;;;;;;;;5048463;28;20024;-69
2021/11/11 12:55:17;;;;;;;28.38;17.70;;;;;;;;;;5035783;28;20047;-63
2021/11/11 12:58:04;;;;;;;24.50;18.05;;;;;;;;;;5012980;28;20029;-68
2021/11/11 13:00:52;;;;;;;24.30;19.52;;;;;;;;;;5029838;28;20029;-69
2021/11/11 13:03:49;;;;;;;22.27;17.67;;;;;;;;;;5049875;28;20513;-70
2021/11/11 13:06:37;;;;;;;31.67;19.88;;;;;;;;;;5048375;28;20045;-69
2021/11/11 13:09:36;;;;;;;25.27;18.30;;;;;;;;;;5036525;28;20076;-68
2021/11/11 13:12:23;;;;;;;24.45;18.45;;;;;;;;;;5033967;28;20059;-70
2021/11/11 13:15:13;;;;;;;25.48;18.10;;;;;;;;;;5036289;28;20047;-62
2021/11/11 13:17:58;;;;;;;23.95;18.60;;;;;;;;;;5024158;28;20036;-63
2021/11/11 13:20:48;;;;;;;24.33;18.70;;;;;;;;;;5030609;28;20476;-67
2021/11/11 13:23:40;;;;;;;;;;;;;;;;;;5028836;28;20100;-64
2021/11/11 14:01:33;;;;;;;33.58;22.23;;;;;;;;;;5034682;28;20037;-65
2021/11/11 14:05:00;;;;;;;36.20;22.83;;;;;;;;;;5033836;28;20029;-64
2021/11/11 16:21:09;;;;;;;39.88;29.65;;;;;;;;;;5025434;28;20056;-66
2021/11/11 16:26:43;;;;;;;36.53;27.27;;;;;;;;;;5030968;28;20076;-63
2021/11/11 16:29:28;;;;;;;39.25;27.70;;;;;;;;;;5032447;28;20041;-62
2021/11/11 16:32:14;;;;;;;41.28;28.83;;;;;;;;;;5032572;28;20025;-64
2021/11/11 16:34:59;;;;;;;38.97;29.20;;;;;;;;;;5026416;28;20423;-66
2021/11/11 16:37:44;;;;;;;46.55;33.05;;;;;;;;;;5014267;28;20447;-64
2021/11/11 16:40:31;;;;;;;43.78;32.70;;;;;;;;;;5029455;28;20430;-66
2021/11/11 16:43:16;;;;;;;44.97;31.83;;;;;;;;;;5029658;28;20033;-63
2021/11/11 16:46:02;;;;;;;51.80;35.42;;;;;;;;;;5031693;28;20025;-64
2021/11/11 16:48:48;;;;;;;44.25;31.80;;;;;;;;;;5029036;28;20471;-66
2021/11/11 16:51:34;;;;;;;43.17;30.52;;;;;;;;;;5030904;28;20494;-65
2021/11/11 16:54:19;;;;;;;46.65;33.28;;;;;;;;;;5031640;28;20116;-63
2021/11/11 16:57:07;;;;;;;43.25;31.30;;;;;;;;;;5031468;28;20037;-68
2021/11/11 16:59:52;;;;;;;47.40;34.45;;;;;;;;;;5025874;28;20419;-68
2021/11/11 17:02:38;;;;;;;52.30;36.47;;;;;;;;;;5029623;28;20082;-69
2021/11/11 17:05:23;;;;;;;50.28;33.45;;;;;;;;;;5031406;28;20082;-68
2021/11/11 17:08:09;;;;;;;45.80;33.10;;;;;;;;;;5027119;28;20071;-68
2021/11/11 17:10:56;;;;;;;45.35;33.20;;;;;;;;;;5032325;28;20568;-64
2021/11/11 17:13:45;;;;;;;48.15;35.08;;;;;;;;;;5041958;28;20091;-65
2021/11/11 17:16:30;;;;;;;46.67;32.90;;;;;;;;;;5033564;28;20132;-65
2021/11/11 17:19:15;;;;;;;45.97;33.25;;;;;;;;;;5033570;28;20103;-65
2021/11/11 17:22:01;;;;;;;53.80;37.95;;;;;;;;;;5028915;28;20381;-65
2021/11/11 17:24:49;;;;;;;40.90;30.95;;;;;;;;;;5049336;28;20048;-64
2021/11/11 17:27:46;;;;;;;51.08;33.92;;;;;;;;;;5029895;28;20116;-63
2021/11/11 17:30:31;;;;;;;47.97;32.20;;;;;;;;;;5030293;28;20471;-70
2021/11/11 17:33:18;;;;;;;40.20;30.67;;;;;;;;;;5031335;28;20142;-68
2021/11/11 17:36:05;;;;;;;41.65;30.40;;;;;;;;;;5033525;28;20147;-65
2021/11/11 17:38:51;;;;;;;44.30;32.00;;;;;;;;;;5029419;28;20032;-66
2021/11/11 17:41:37;;;;;;;41.97;31.70;;;;;;;;;;5024976;28;20037;-62
2021/11/11 17:44:23;;;;;;;41.38;30.98;;;;;;;;;;5032293;28;20028;-65
2021/11/11 17:47:11;;;;;;;41.63;32.22;;;;;;;;;;5028507;28;20043;-66
2021/11/11 17:49:57;;;;;;;48.25;34.17;;;;;;;;;;5032393;28;20071;-65
2021/11/11 17:52:49;;;;;;;42.20;30.88;;;;;;;;;;5028935;28;20071;-64
2021/11/11 17:55:38;;;;;;;41.28;29.52;;;;;;;;;;5034831;28;20025;-64
2021/11/11 17:58:24;;;;;;;48.03;31.67;;;;;;;;;;5026204;28;20483;-62
2021/11/11 18:01:12;;;;;;;46.58;34.00;;;;;;;;;;5030529;28;20148;-68
2021/11/11 18:03:57;;;;;;;39.72;29.58;;;;;;;;;;5025258;28;20033;-64
2021/11/11 18:06:55;;;;;;;42.45;29.83;;;;;;;;;;5032002;28;20041;-65
2021/11/11 18:09:45;;;;;;;43.78;31.33;;;;;;;;;;5027273;28;20085;-65
2021/11/11 18:12:40;;;;;;;40.63;29.98;;;;;;;;;;5019126;28;20068;-64
2021/11/11 18:15:32;;;;;;;38.63;29.65;;;;;;;;;;5030935;28;20117;-64
2021/11/11 18:18:17;;;;;;;41.38;29.65;;;;;;;;;;5029646;28;20025;-66
2021/11/11 18:21:05;;;;;;;40.38;28.85;;;;;;;;;;5034253;28;20037;-64
2021/11/11 18:23:51;;;;;;;43.72;31.48;;;;;;;;;;5031424;28;20029;-64
2021/11/11 18:26:37;;;;;;;50.28;36.15;;;;;;;;;;5030811;28;20051;-73
2021/11/11 18:29:31;;;;;;;42.45;32.08;;;;;;;;;;5033182;28;20067;-69
2021/11/11 18:32:17;;;;;;;50.35;33.15;;;;;;;;;;5033402;28;20419;-70
2021/11/11 18:35:10;;;;;;;55.38;36.17;;;;;;;;;;5033577;28;20079;-68
2021/11/11 18:37:55;;;;;;;48.95;35.20;;;;;;;;;;5034762;28;20104;-68
2021/11/11 18:40:41;;;;;;;55.70;38.33;;;;;;;;;;5031786;28;20404;-71
2021/11/11 18:43:29;;;;;;;52.97;35.72;;;;;;;;;;5033736;28;20079;-70
2021/11/11 18:46:15;;;;;;;46.88;34.50;;;;;;;;;;5014315;28;20065;-65
2021/11/11 18:49:00;;;;;;;42.85;30.88;;;;;;;;;;5010193;28;20060;-68
2021/11/11 18:51:46;;;;;;;42.03;30.92;;;;;;;;;;5029448;28;20037;-66
2021/11/11 18:54:31;;;;;;;50.25;34.20;;;;;;;;;;5027938;28;20025;-66
2021/11/11 18:57:16;;;;;;;48.97;33.05;;;;;;;;;;5047254;28;20033;-65
2021/11/11 19:00:05;;;;;;;44.83;32.78;;;;;;;;;;5023574;28;20039;-68
2021/11/11 19:02:50;;;;;;;46.90;34.40;;;;;;;;;;5032264;28;20025;-66
2021/11/11 19:05:58;;;;;;;54.88;36.65;;;;;;;;;;5032872;28;20315;-69
2021/11/11 19:11:39;;;;;;;47.50;31.25;;;;;;;;;;5026041;28;20114;-69
2021/11/11 19:14:27;;;;;;;44.97;30.98;;;;;;;;;;5030858;28;20104;-70
2021/11/11 19:17:24;;;;;;;44.42;31.35;;;;;;;;;;5013153;28;20045;-69
2021/11/11 19:20:09;;;;;;;46.35;30.20;;;;;;;;;;5025443;28;20038;-65
2021/11/11 19:22:56;;;;;;;52.20;35.75;;;;;;;;;;5033051;28;20037;-65
2021/11/11 19:25:41;;;;;;;54.90;37.80;;;;;;;;;;5028048;28;20176;-64
2021/11/11 19:28:27;;;;;;;43.00;32.88;;;;;;;;;;5030567;28;20044;-66
2021/11/11 19:31:13;;;;;;;44.97;32.42;;;;;;;;;;5028570;28;20353;-65
2021/11/11 19:34:16;;;;;;;54.88;37.58;;;;;;;;;;5028343;28;20041;-65
2021/11/11 19:40:10;;;;;;;42.75;31.80;;;;;;;;;;5032996;28;20037;-66
2021/11/11 19:48:57;;;;;;;48.97;36.00;;;;;;;;;;5032422;28;20044;-69
2021/11/11 20:09:07;;;;;;;40.28;29.35;;;;;;;;;;5031399;28;20236;-63
2021/11/11 20:36:21;;;;;;;44.97;31.83;;;;;;;;;;5028424;28;20028;-64
2021/11/11 20:45:23;;;;;;;36.05;26.67;;;;;;;;;;5033810;28;20032;-65
2021/11/11 20:54:25;;;;;;;37.65;27.70;;;;;;;;;;5035372;28;20379;-67
2021/11/11 21:00:19;;;;;;;39.97;28.73;;;;;;;;;;5029892;28;20039;-67
2021/11/11 21:06:08;;;;;;;31.88;23.63;;;;;;;;;;5032590;28;20068;-67
2021/11/11 21:09:08;;;;;;;31.88;24.23;;;;;;;;;;5025374;28;20033;-66
2021/11/11 21:17:34;;;;;;;26.85;20.33;;;;;;;;;;5032343;28;20048;-70
2021/11/11 21:20:20;;;;;;;24.08;19.40;;;;;;;;;;5042163;28;20057;-69
2021/11/11 21:23:06;;;;;;;27.98;21.40;;;;;;;;;;5029468;28;20219;-69
2021/11/11 21:25:52;;;;;;;26.08;19.92;;;;;;;;;;5032105;28;20082;-70